CheckWX is a tool to help pilots better visualize weather data.  It is not intended as a substitute for an official pre-flight weather briefing.

17:55:50 UTC

CYKA METAR
Kamloops Airport
Kamloops, Canada
Current

56 mins ago

CYKA 171700Z 09014KT 40SM FEW060 SCT160 BKN230 12/03 A2952 RMK SC1AC4CI2 SC TR SLP001 DENSITY ALT 1500FT
Observed
Oct-17 @ 17:00 UTC
Wind
  • 090° at 14 KTS
Visibility
40 SM
Flight Rules
VFR
Cloud Levels
  • Few at 6,000' AGL
  • Scattered at 16,000' AGL
  • Broken at 23,000' AGL
Temperature
12°C / 54°F
Dewpoint
C / 37°F
Humidity
54%
Altimeter
29.52" Hg
Pressure
999.62 hPa
Previous

2 hours ago

CYKA 171600Z 10008KT 40SM FEW060 SCT230 10/03 A2953 WS RWY27 RMK SC1CI3 SC TR SLP004 DENSITY ALT 1300FT
Observed
Oct-17 @ 16:00 UTC
Wind
  • 100° at 8 KTS
Visibility
40 SM
Flight Rules
VFR
Cloud Levels
  • Few at 6,000' AGL
  • Scattered at 23,000' AGL
Temperature
10°C / 50°F
Dewpoint
C / 37°F
Humidity
62%
Altimeter
29.53" Hg
Pressure
1000.02 hPa
Previous

3 hours ago

CYKA 171500Z 09008KT 40SM FEW060 FEW200 07/02 A2953 RMK SC1CI1 SLP006
Observed
Oct-17 @ 15:00 UTC
Wind
  • 090° at 8 KTS
Visibility
40 SM
Flight Rules
VFR
Cloud Levels
  • Few at 6,000' AGL
  • Few at 20,000' AGL
Temperature
C / 45°F
Dewpoint
C / 36°F
Humidity
71%
Altimeter
29.53" Hg
Pressure
1000.02 hPa